This is the latest recevied weather packets stored in our database for station/object N6SPP. If no packets are shown the sender has not sent any weather packets the latest 10 day(s).
| Time | Temp. | Humidity | Pressure | Rain* | Wind** | Luminosity | Snow |
|---|---|---|---|---|---|---|---|
| 1778203811 | 23.89° C | 57% | 1017.3 hPa | 0 mm | - | 111 W/m² | - |
| 1778203508 | 23.89° C | 56% | 1017.4 hPa | 0 mm | - | 126 W/m² | - |
| 1778203205 | 24.44° C | 56% | 1017.1 hPa | 0 mm | - | 112 W/m² | - |
| 1778202903 | 24.44° C | 56% | 1017.1 hPa | 0 mm | - | 63 W/m² | - |
| 1778202600 | 23.89° C | 56% | 1017.3 hPa | 0 mm | - | 164 W/m² | - |
| 1778202297 | 24.44° C | 57% | 1017.1 hPa | 0 mm | - | 178 W/m² | - |
| 1778201994 | 23.89° C | 58% | 1017.3 hPa | 0 mm | - | 195 W/m² | - |
| 1778201691 | 23.89° C | 58% | 1017.5 hPa | 0 mm | - | 210 W/m² | - |
| 1778201388 | 23.89° C | 59% | 1017.6 hPa | 0 mm | - | 223 W/m² | - |
| 1778201083 | 25.56° C | 57% | 1017.3 hPa | 0 mm | - | 238 W/m² | - |
| 1778200780 | 25° C | 56% | 1017.6 hPa | 0 mm | - | 251 W/m² | - |
| 1778200477 | 24.44° C | 57% | 1017.5 hPa | 0 mm | - | 220 W/m² | - |
| 1778200174 | 24.44° C | 57% | 1017.4 hPa | 0 mm | - | 72 W/m² | - |
| 1778199871 | 24.44° C | 58% | 1017.7 hPa | 0 mm | - | 54 W/m² | - |
| 1778199567 | 25° C | 56% | 1017.7 hPa | 0 mm | - | 243 W/m² | - |
| 1778199264 | 24.44° C | 58% | 1017.5 hPa | 0 mm | - | 332 W/m² | - |
| 1778198960 | 25° C | 56% | 1017.5 hPa | 0 mm | - | 342 W/m² | - |
| 1778198656 | 25° C | 56% | 1017.6 hPa | 0 mm | - | 297 W/m² | - |
| 1778198353 | 25.56° C | 55% | 1017.7 hPa | 0 mm | - | 371 W/m² | - |
| 1778198050 | 26.11° C | 53% | 1017.4 hPa | 0 mm | - | 336 W/m² | - |
| 1778197747 | 26.11° C | 51% | 1017.5 hPa | 0 mm | - | 400 W/m² | - |
| 1778197444 | 26.11° C | 52% | 1017.4 hPa | 0 mm | - | 414 W/m² | - |
| 1778197140 | 26.67° C | 51% | 1017.5 hPa | 0 mm | - | 428 W/m² | - |
| 1778196837 | 26.67° C | 51% | 1017.5 hPa | 0 mm | - | 442 W/m² | - |
| 1778196536 | 27.22° C | 50% | 1017.5 hPa | 0 mm | - | 454 W/m² | - |
* Rain latest hour (hover to see other rain measurements)
** Current wind speed in m/s (hover to see current wind gust speed)